createdAt,value
2023-09-21T00:01:24.519Z,99113.94
2023-09-21T00:03:53.209Z,99113.59
2023-09-21T00:06:20.263Z,99117.59
2023-09-21T00:08:50.182Z,99116.03
2023-09-21T00:11:19.439Z,99116.25
2023-09-21T00:13:46.771Z,99112.16
2023-09-21T00:16:13.896Z,99108.53
2023-09-21T00:18:45.483Z,99108.16
2023-09-21T00:21:16.116Z,99105.56
2023-09-21T00:23:45.488Z,99104.09
2023-09-21T00:26:14.019Z,99099.66
2023-09-21T00:28:42.442Z,99099.47
2023-09-21T00:31:10.138Z,99096.94
2023-09-21T00:33:38.096Z,99095.13
2023-09-21T00:36:05.669Z,99095.97
2023-09-21T00:38:33.064Z,99091.34
2023-09-21T00:41:05.580Z,99084.66
2023-09-21T00:43:34.635Z,99085.81
2023-09-21T00:46:04.925Z,99097.25
2023-09-21T00:48:40.066Z,99095.78
2023-09-21T00:51:13.355Z,99090.75
2023-09-21T00:53:45.679Z,99094.28
2023-09-21T00:56:15.433Z,99088.94
2023-09-21T00:58:46.707Z,99095.66
2023-09-21T01:01:17.786Z,99092.03
2023-09-21T01:03:45.786Z,99092.38
2023-09-21T01:06:13.816Z,99085.69
2023-09-21T01:08:41.163Z,99083.88
2023-09-21T01:11:11.625Z,99081.41
2023-09-21T01:13:38.971Z,99069.72
2023-09-21T01:16:07.345Z,99076.88
2023-09-21T01:18:34.663Z,99073.84
2023-09-21T01:21:07.310Z,99071.19
2023-09-21T01:23:35.564Z,99073.84
2023-09-21T01:26:02.531Z,99071.19
2023-09-21T01:28:32.364Z,99079.19
2023-09-21T01:31:02.222Z,99070.44
2023-09-21T01:33:29.420Z,99067.03
2023-09-21T01:35:56.947Z,99065.78
2023-09-21T01:38:27.045Z,99060.66
2023-09-21T01:40:54.599Z,99061.88
2023-09-21T01:43:21.812Z,99061.03
2023-09-21T01:45:51.330Z,99060.50
2023-09-21T01:48:21.449Z,99054.94
2023-09-21T01:50:51.847Z,99052.16
2023-09-21T01:53:20.908Z,99043.53
2023-09-21T01:55:52.847Z,99056.13
2023-09-21T01:58:24.969Z,99050.06
2023-09-21T02:00:52.759Z,99045.59
2023-09-21T02:03:24.645Z,99044.75
2023-09-21T02:05:51.923Z,99035.34
2023-09-21T02:08:21.859Z,99041.31
2023-09-21T02:10:51.419Z,99041.78
2023-09-21T02:13:19.473Z,99037.31
2023-09-21T02:15:54.099Z,99039.63
2023-09-21T02:18:21.690Z,99031.75
2023-09-21T02:20:57.280Z,99040.69
2023-09-21T02:23:27.131Z,99030.56
2023-09-21T02:25:54.142Z,99037.59
2023-09-21T02:28:24.609Z,99030.78
2023-09-21T02:30:52.489Z,99029.78
2023-09-21T02:33:21.482Z,99013.06
2023-09-21T02:35:50.151Z,99024.69
2023-09-21T02:38:22.005Z,99017.88
2023-09-21T02:40:49.281Z,99021.94
2023-09-21T02:43:17.075Z,99022.50
2023-09-21T02:45:46.808Z,99023.44
2023-09-21T02:48:16.424Z,99015.69
2023-09-21T02:50:44.642Z,99015.56
2023-09-21T02:53:13.703Z,99017.38
2023-09-21T02:55:44.185Z,99015.56
2023-09-21T02:58:12.805Z,99011.69
2023-09-21T03:00:47.074Z,99013.22
2023-09-21T03:03:15.002Z,99004.94
2023-09-21T03:05:47.949Z,99006.03
2023-09-21T03:08:19.037Z,99006.19
2023-09-21T03:10:54.915Z,99004.25
2023-09-21T03:13:25.225Z,99010.69
2023-09-21T03:16:02.459Z,99004.09
2023-09-21T03:18:30.432Z,99013.44
2023-09-21T03:20:58.024Z,99000.47
2023-09-21T03:23:25.411Z,99000.34
2023-09-21T03:25:55.177Z,99003.47
2023-09-21T03:28:26.275Z,98996.44
2023-09-21T03:30:58.724Z,98996.88
2023-09-21T03:33:25.826Z,98994.97
2023-09-21T03:35:53.569Z,98991.06
2023-09-21T03:38:21.324Z,98983.91
2023-09-21T03:40:50.060Z,98984.53
2023-09-21T03:43:22.236Z,98996.59
2023-09-21T03:45:49.152Z,98988.38
2023-09-21T03:48:17.966Z,98985.72
2023-09-21T03:50:53.461Z,98984.25
2023-09-21T03:53:20.707Z,98979.81
2023-09-21T03:55:48.377Z,98980.69
2023-09-21T03:58:20.928Z,98985.41
2023-09-21T04:00:48.599Z,98983.81
2023-09-21T04:03:15.555Z,98981.97
2023-09-21T04:05:45.139Z,98980.28
2023-09-21T04:08:12.139Z,98975.81
2023-09-21T04:10:41.745Z,98974.84
2023-09-21T04:13:10.688Z,98973.13
2023-09-21T04:15:38.156Z,98980.84
2023-09-21T04:18:15.849Z,98978.41
2023-09-21T04:20:46.155Z,98972.44
2023-09-21T04:23:13.295Z,98969.88
2023-09-21T04:25:40.436Z,98977.38
2023-09-21T04:28:08.374Z,98969.59
2023-09-21T04:30:36.214Z,98968.84
2023-09-21T04:33:03.393Z,98968.00
2023-09-21T04:35:31.830Z,98955.84
2023-09-21T04:37:59.622Z,98968.47
2023-09-21T04:40:27.824Z,98972.06
2023-09-21T04:42:56.251Z,98963.56
2023-09-21T04:45:23.673Z,98963.00
2023-09-21T04:47:53.017Z,98959.03
2023-09-21T04:50:20.476Z,98949.25
2023-09-21T04:52:49.688Z,98958.31
2023-09-21T04:55:20.361Z,98960.63
2023-09-21T04:57:47.820Z,98958.81
2023-09-21T05:00:17.800Z,98954.03
2023-09-21T05:02:45.692Z,98954.13
2023-09-21T05:05:15.617Z,98944.09
2023-09-21T05:07:44.093Z,98946.88
2023-09-21T05:10:13.881Z,98949.63
2023-09-21T05:12:42.522Z,98944.84
2023-09-21T05:15:15.195Z,98937.69
2023-09-21T05:17:42.089Z,98944.72
2023-09-21T05:20:12.609Z,98936.59
2023-09-21T05:22:44.084Z,98937.22
2023-09-21T05:25:11.586Z,98937.75
2023-09-21T05:27:39.936Z,98935.47
2023-09-21T05:30:10.868Z,98948.88
2023-09-21T05:32:40.058Z,98943.97
2023-09-21T05:35:12.171Z,98950.75
2023-09-21T05:37:40.066Z,98946.91
2023-09-21T05:40:09.023Z,98941.00
2023-09-21T05:42:37.166Z,98949.97
2023-09-21T05:45:05.350Z,98942.50
2023-09-21T05:47:33.934Z,98941.56
2023-09-21T05:50:01.467Z,98944.72
2023-09-21T05:52:31.667Z,98940.84
2023-09-21T05:54:59.226Z,98940.38
2023-09-21T05:57:26.457Z,98939.91
2023-09-21T05:59:53.583Z,98942.09
2023-09-21T06:02:25.324Z,98938.72
2023-09-21T06:04:53.484Z,98938.25
2023-09-21T06:07:23.572Z,98937.97
2023-09-21T06:09:52.420Z,98942.16
2023-09-21T06:12:21.053Z,98931.00
2023-09-21T06:14:51.809Z,98941.91
2023-09-21T06:17:19.889Z,98942.47
2023-09-21T06:19:50.038Z,98944.31
2023-09-21T06:22:18.094Z,98936.88
2023-09-21T06:24:46.078Z,98941.00
2023-09-21T06:27:14.797Z,98933.31
2023-09-21T06:29:44.269Z,98937.91
2023-09-21T06:32:14.002Z,98935.19
2023-09-21T06:34:45.164Z,98929.34
2023-09-21T06:37:13.389Z,98925.44
2023-09-21T06:39:41.222Z,98922.22
2023-09-21T06:42:08.473Z,98928.75
2023-09-21T06:44:35.192Z,98918.63
2023-09-21T06:47:02.445Z,98918.91
2023-09-21T06:49:30.810Z,98912.56
2023-09-21T06:52:00.110Z,98923.34
2023-09-21T06:54:30.769Z,98924.13
2023-09-21T06:57:05.348Z,98915.28
2023-09-21T06:59:37.862Z,98917.66
2023-09-21T07:02:06.192Z,98918.66
2023-09-21T07:04:36.090Z,98918.88
2023-09-21T07:07:09.302Z,98912.97
2023-09-21T07:09:39.700Z,98920.75
2023-09-21T07:12:07.434Z,98919.25
2023-09-21T07:14:37.144Z,98926.31
2023-09-21T07:17:07.125Z,98918.44
2023-09-21T07:19:38.489Z,98919.28
2023-09-21T07:22:05.808Z,98913.25
2023-09-21T07:24:38.611Z,98909.47
2023-09-21T07:27:07.408Z,98916.81
2023-09-21T07:29:35.134Z,98916.25
2023-09-21T07:32:02.010Z,98920.34
2023-09-21T07:34:30.998Z,98920.78
2023-09-21T07:36:59.000Z,98926.25
2023-09-21T07:39:27.128Z,98911.41
2023-09-21T07:41:55.373Z,98916.16
2023-09-21T07:44:25.354Z,98915.63
2023-09-21T07:46:54.012Z,98922.38
2023-09-21T07:49:21.498Z,98917.28
2023-09-21T07:51:50.861Z,98902.28
2023-09-21T07:54:18.402Z,98914.72
2023-09-21T07:56:48.240Z,98910.69
2023-09-21T07:59:17.171Z,98906.47
2023-09-21T08:01:49.958Z,98905.41
2023-09-21T08:04:18.770Z,98907.09
2023-09-21T08:06:49.714Z,98905.41
2023-09-21T08:09:31.814Z,98902.34
2023-09-21T08:12:01.516Z,98905.13
2023-09-21T08:14:31.089Z,98899.84
2023-09-21T08:16:59.408Z,98900.13
2023-09-21T08:19:27.309Z,98898.00
2023-09-21T08:21:54.156Z,98894.19
2023-09-21T08:24:21.206Z,98890.41
2023-09-21T08:26:48.036Z,98888.38
2023-09-21T08:29:16.142Z,98891.72
2023-09-21T08:31:43.407Z,98889.16
2023-09-21T08:34:10.515Z,98892.34
2023-09-21T08:36:37.502Z,98883.63
2023-09-21T08:39:05.948Z,98877.50
2023-09-21T08:41:35.999Z,98878.09
2023-09-21T08:44:04.373Z,98872.75
2023-09-21T08:46:33.468Z,98884.34
2023-09-21T08:49:01.877Z,98882.66
2023-09-21T08:51:32.842Z,98872.56
2023-09-21T08:54:00.876Z,98880.56
2023-09-21T08:56:28.392Z,98868.63
2023-09-21T08:58:59.168Z,98875.75
2023-09-21T09:01:26.352Z,98875.44
2023-09-21T09:03:53.535Z,98866.13
2023-09-21T09:06:20.995Z,98880.88
2023-09-21T09:08:49.490Z,98869.06
2023-09-21T09:11:36.913Z,98860.63
2023-09-21T09:14:04.829Z,98866.34
2023-09-21T09:16:32.345Z,98858.41
2023-09-21T09:19:03.489Z,98867.25
2023-09-21T09:21:33.257Z,98860.81
2023-09-21T09:24:01.781Z,98859.47
2023-09-21T09:26:31.947Z,98858.97
2023-09-21T09:29:10.404Z,98859.03
2023-09-21T09:31:43.562Z,98851.91
2023-09-21T09:34:18.589Z,98851.00
2023-09-21T09:36:53.061Z,98856.00
2023-09-21T09:39:22.619Z,98844.28
2023-09-21T09:41:59.037Z,98842.31
2023-09-21T09:44:30.821Z,98828.09
2023-09-21T09:47:02.198Z,98838.72
2023-09-21T09:49:31.676Z,98834.69
2023-09-21T09:52:02.065Z,98828.91
2023-09-21T09:54:31.803Z,98847.97
2023-09-21T09:57:02.654Z,98839.41
2023-09-21T09:59:31.376Z,98827.75
2023-09-21T10:01:59.773Z,98832.50
2023-09-21T10:04:34.329Z,98827.91
2023-09-21T10:07:01.457Z,98827.31
2023-09-21T10:09:29.214Z,98828.31
2023-09-21T10:11:59.047Z,98823.59
2023-09-21T10:14:27.083Z,98830.41
2023-09-21T10:16:56.623Z,98821.97
2023-09-21T10:19:37.745Z,98817.44
2023-09-21T10:22:26.704Z,98810.81
2023-09-21T10:25:00.425Z,98804.78
2023-09-21T10:27:34.863Z,98797.75
2023-09-21T10:30:08.542Z,98791.94
2023-09-21T10:32:45.100Z,98803.56
2023-09-21T10:35:23.027Z,98793.13
2023-09-21T10:37:53.208Z,98786.81
2023-09-21T10:40:24.062Z,98785.41
2023-09-21T10:42:52.379Z,98778.69
2023-09-21T10:45:19.540Z,98776.31
2023-09-21T10:47:51.099Z,98780.97
2023-09-21T10:50:25.221Z,98766.72
2023-09-21T10:52:56.746Z,98769.34
2023-09-21T10:55:23.773Z,98765.72
2023-09-21T10:57:53.546Z,98751.91
2023-09-21T11:00:23.969Z,98752.44
2023-09-21T11:02:51.784Z,98747.47
2023-09-21T11:05:20.761Z,98759.66
2023-09-21T11:07:49.642Z,98750.22
2023-09-21T11:10:17.836Z,98747.66
2023-09-21T11:12:46.182Z,98746.41
2023-09-21T11:15:15.606Z,98740.63
2023-09-21T11:17:45.329Z,98731.00
2023-09-21T11:20:19.354Z,98732.81
2023-09-21T11:22:49.176Z,98718.94
2023-09-21T11:25:23.294Z,98725.09
2023-09-21T11:27:51.915Z,98730.66
2023-09-21T11:30:19.738Z,98725.19
2023-09-21T11:32:49.016Z,98724.50
2023-09-21T11:35:17.442Z,98710.84
2023-09-21T11:37:45.444Z,98707.19
2023-09-21T11:40:15.634Z,98714.88
2023-09-21T11:42:44.613Z,98691.53
2023-09-21T11:45:19.386Z,98696.09
2023-09-21T11:47:55.962Z,98702.44
2023-09-21T11:50:36.804Z,98692.13
2023-09-21T11:53:08.651Z,98687.38
2023-09-21T11:55:38.132Z,98691.28
2023-09-21T11:58:09.793Z,98694.69
2023-09-21T12:00:52.841Z,98688.72
2023-09-21T12:03:26.496Z,98679.56
2023-09-21T12:05:57.513Z,98664.25
2023-09-21T12:08:26.715Z,98681.69
2023-09-21T12:10:57.183Z,98665.66
2023-09-21T12:13:25.380Z,98659.84
2023-09-21T12:15:56.625Z,98658.56
2023-09-21T12:18:24.462Z,98658.53
2023-09-21T12:20:53.323Z,98647.13
2023-09-21T12:23:21.086Z,98649.13
2023-09-21T12:25:48.221Z,98651.84
2023-09-21T12:28:15.417Z,98649.44
2023-09-21T12:30:44.164Z,98645.06
2023-09-21T12:33:34.812Z,98646.50
2023-09-21T12:36:06.342Z,98641.63
2023-09-21T12:38:34.479Z,98632.44
2023-09-21T12:41:04.858Z,98629.59
2023-09-21T12:43:33.042Z,98632.81
2023-09-21T12:46:00.577Z,98627.34
2023-09-21T12:48:27.979Z,98624.78
2023-09-21T12:50:55.156Z,98623.44
2023-09-21T12:53:23.252Z,98609.69
2023-09-21T12:55:50.409Z,98613.31
2023-09-21T12:58:17.349Z,98614.94
2023-09-21T13:00:47.078Z,98607.72
2023-09-21T13:03:15.545Z,98611.84
2023-09-21T13:05:46.426Z,98591.97
2023-09-21T13:08:14.670Z,98592.13
2023-09-21T13:10:42.070Z,98590.63
2023-09-21T13:13:13.087Z,98588.56
2023-09-21T13:15:40.742Z,98578.19
2023-09-21T13:18:11.884Z,98590.22
2023-09-21T13:20:40.517Z,98581.81
2023-09-21T13:23:08.016Z,98585.44
2023-09-21T13:25:35.344Z,98585.16
2023-09-21T13:28:03.462Z,98583.56
2023-09-21T13:30:30.975Z,98579.63
2023-09-21T13:32:58.291Z,98585.75
2023-09-21T13:35:25.717Z,98585.63
2023-09-21T13:37:54.649Z,98586.69
2023-09-21T13:40:22.864Z,98574.53
2023-09-21T13:42:50.038Z,98577.25
2023-09-21T13:45:17.120Z,98583.16
2023-09-21T13:47:45.012Z,98581.88
2023-09-21T13:50:12.322Z,98573.94
2023-09-21T13:52:40.474Z,98572.34
2023-09-21T13:57:41.772Z,98578.53
2023-09-21T14:00:11.480Z,98576.53
2023-09-21T14:02:46.039Z,98576.13
2023-09-21T14:05:13.888Z,98569.69
2023-09-21T14:07:42.507Z,98576.41
2023-09-21T14:10:10.016Z,98568.16
2023-09-21T14:12:37.862Z,98560.47
2023-09-21T14:15:07.465Z,98566.09
2023-09-21T14:17:36.853Z,98563.72
2023-09-21T14:20:07.521Z,98557.78
2023-09-21T14:22:34.548Z,98563.44
2023-09-21T14:25:04.063Z,98568.59
2023-09-21T14:27:31.042Z,98563.84
2023-09-21T14:29:58.992Z,98568.03
2023-09-21T14:32:25.951Z,98556.63
2023-09-21T14:34:54.051Z,98556.94
2023-09-21T14:37:20.800Z,98559.25
2023-09-21T14:39:47.965Z,98555.16
2023-09-21T14:42:16.646Z,98562.59
2023-09-21T14:44:45.279Z,98552.97
2023-09-21T14:47:12.129Z,98558.16
2023-09-21T14:49:39.156Z,98554.00
2023-09-21T14:52:06.114Z,98559.91
2023-09-21T14:54:38.167Z,98560.38
2023-09-21T14:57:09.128Z,98548.81
2023-09-21T14:59:36.363Z,98556.47
2023-09-21T15:02:03.840Z,98555.53
2023-09-21T15:04:32.719Z,98556.34
2023-09-21T15:07:00.094Z,98550.66
2023-09-21T15:09:27.028Z,98551.31
2023-09-21T15:11:56.177Z,98546.91
2023-09-21T15:14:24.763Z,98549.25
2023-09-21T15:16:53.092Z,98542.19
2023-09-21T15:19:19.959Z,98545.72
2023-09-21T15:21:46.894Z,98544.28
2023-09-21T15:24:13.766Z,98536.47
2023-09-21T15:26:40.743Z,98541.19
2023-09-21T15:29:07.982Z,98540.94
2023-09-21T15:31:35.428Z,98530.69
2023-09-21T15:34:07.148Z,98532.81
2023-09-21T15:36:41.085Z,98539.63
2023-09-21T15:39:08.897Z,98532.00
2023-09-21T15:41:36.262Z,98538.25
2023-09-21T15:44:03.951Z,98526.47
2023-09-21T15:46:31.976Z,98531.00
2023-09-21T15:48:59.091Z,98514.53
2023-09-21T15:51:26.407Z,98514.69
2023-09-21T15:53:53.272Z,98518.34
2023-09-21T15:56:20.312Z,98507.81
2023-09-21T15:58:47.384Z,98507.72
2023-09-21T16:01:14.790Z,98495.13
2023-09-21T16:03:42.051Z,98497.97
2023-09-21T16:06:10.157Z,98501.59
2023-09-21T16:08:38.426Z,98498.69
2023-09-21T16:11:06.394Z,98499.06
2023-09-21T16:13:35.685Z,98493.53
2023-09-21T16:16:02.677Z,98487.44
2023-09-21T16:18:29.796Z,98493.72
2023-09-21T16:21:00.199Z,98490.03
2023-09-21T16:23:29.011Z,98496.13
2023-09-21T16:25:57.509Z,98492.56
2023-09-21T16:28:24.601Z,98497.38
2023-09-21T16:30:52.416Z,98500.09
2023-09-21T16:33:19.561Z,98492.63
2023-09-21T16:35:46.823Z,98485.06
2023-09-21T16:38:15.212Z,98484.53
2023-09-21T16:40:42.274Z,98480.88
2023-09-21T16:43:11.188Z,98485.50
2023-09-21T16:45:40.139Z,98471.16
2023-09-21T16:48:07.584Z,98471.19
2023-09-21T16:50:36.868Z,98463.41
2023-09-21T16:53:03.781Z,98465.44
2023-09-21T16:55:32.181Z,98459.19
2023-09-21T16:57:59.049Z,98457.38
2023-09-21T17:00:26.726Z,98456.50
2023-09-21T17:02:53.928Z,98467.16
2023-09-21T17:05:24.283Z,98466.88
2023-09-21T17:07:56.745Z,98456.81
2023-09-21T17:10:24.620Z,98454.09
2023-09-21T17:12:55.295Z,98454.47
2023-09-21T17:15:22.890Z,98458.22
2023-09-21T17:17:51.036Z,98447.41
2023-09-21T17:20:17.947Z,98459.25
2023-09-21T17:22:44.956Z,98454.72
2023-09-21T17:25:15.733Z,98465.31
2023-09-21T17:27:46.185Z,98451.69
2023-09-21T17:30:16.090Z,98451.19
2023-09-21T17:32:44.391Z,98447.84
2023-09-21T17:35:11.604Z,98444.47
2023-09-21T17:37:39.014Z,98448.66
2023-09-21T17:40:07.326Z,98457.59
2023-09-21T17:42:34.831Z,98446.16
2023-09-21T17:45:04.504Z,98450.22
2023-09-21T17:47:31.829Z,98456.25
2023-09-21T17:49:58.707Z,98450.84
2023-09-21T17:52:30.102Z,98465.53
2023-09-21T17:54:57.302Z,98457.78
2023-09-21T17:57:25.867Z,98452.41
2023-09-21T17:59:54.849Z,98450.88
2023-09-21T18:02:22.185Z,98448.34
2023-09-21T18:04:49.726Z,98451.72
2023-09-21T18:07:17.266Z,98450.06
2023-09-21T18:09:44.096Z,98446.00
2023-09-21T18:12:15.625Z,98442.63
2023-09-21T18:14:43.561Z,98442.81
2023-09-21T18:17:11.336Z,98435.06
2023-09-21T18:19:38.517Z,98439.44
2023-09-21T18:22:05.871Z,98431.03
2023-09-21T18:24:33.193Z,98441.13
2023-09-21T18:27:00.727Z,98443.16
2023-09-21T18:29:28.860Z,98445.84
2023-09-21T18:31:59.317Z,98442.66
2023-09-21T18:34:26.392Z,98431.34
2023-09-21T18:36:53.222Z,98438.78
2023-09-21T18:39:21.235Z,98438.09
2023-09-21T18:41:50.500Z,98443.50
2023-09-21T18:44:18.706Z,98435.78
2023-09-21T18:46:51.886Z,98433.56
2023-09-21T18:49:18.693Z,98432.91
2023-09-21T18:51:45.936Z,98437.78
2023-09-21T18:54:13.242Z,98434.41
2023-09-21T18:56:54.803Z,98432.06
2023-09-21T18:59:32.214Z,98439.75
2023-09-21T19:01:59.209Z,98430.84
2023-09-21T19:04:29.279Z,98447.16
2023-09-21T19:06:57.537Z,98440.41
2023-09-21T19:09:25.052Z,98434.66
2023-09-21T19:11:52.136Z,98438.34
2023-09-21T19:14:18.904Z,98435.97
2023-09-21T19:16:49.248Z,98427.25
2023-09-21T19:19:20.501Z,98419.16
2023-09-21T19:21:49.172Z,98418.78
2023-09-21T19:24:16.497Z,98416.78
2023-09-21T19:26:43.909Z,98419.13
2023-09-21T19:29:10.945Z,98423.53
2023-09-21T19:31:39.993Z,98415.84
2023-09-21T19:34:07.367Z,98417.84
2023-09-21T19:36:34.260Z,98417.31
2023-09-21T19:39:01.157Z,98419.97
2023-09-21T19:41:30.181Z,98415.13
2023-09-21T19:43:57.110Z,98411.25
2023-09-21T19:46:24.117Z,98413.56
2023-09-21T19:48:51.175Z,98400.47
2023-09-21T19:51:20.226Z,98406.84
2023-09-21T19:53:48.618Z,98400.13
2023-09-21T19:56:15.421Z,98388.91
2023-09-21T19:58:42.336Z,98385.84
2023-09-21T20:01:09.826Z,98394.75
2023-09-21T20:03:36.757Z,98383.31
2023-09-21T20:06:05.067Z,98388.38
2023-09-21T20:08:33.337Z,98381.28
2023-09-21T20:11:11.180Z,98378.25
2023-09-21T20:13:38.609Z,98371.22
2023-09-21T20:16:06.054Z,98369.34
2023-09-21T20:18:33.323Z,98379.75
2023-09-21T20:21:00.270Z,98362.09
2023-09-21T20:23:28.240Z,98368.81
2023-09-21T20:25:55.862Z,98369.13
2023-09-21T20:28:26.026Z,98354.34
2023-09-21T20:30:57.211Z,98366.59
2023-09-21T20:33:24.221Z,98369.13
2023-09-21T20:35:56.130Z,98368.28
2023-09-21T20:38:23.321Z,98357.00
2023-09-21T20:40:50.885Z,98355.13
2023-09-21T20:43:17.798Z,98356.31
2023-09-21T20:45:45.379Z,98356.28
2023-09-21T20:48:12.228Z,98351.34
2023-09-21T20:50:39.427Z,98358.56
2023-09-21T20:53:08.769Z,98355.16
2023-09-21T20:55:37.646Z,98363.22
2023-09-21T20:58:04.821Z,98363.69
2023-09-21T21:00:33.026Z,98336.97
2023-09-21T21:02:59.924Z,98351.78
2023-09-21T21:05:26.886Z,98359.16
2023-09-21T21:07:53.727Z,98357.91
2023-09-21T21:10:20.721Z,98370.50
2023-09-21T21:12:48.756Z,98362.09
2023-09-21T21:15:15.729Z,98364.41
2023-09-21T21:17:42.697Z,98362.41
2023-09-21T21:20:10.308Z,98360.38
2023-09-21T21:22:37.159Z,98365.03
2023-09-21T21:25:05.011Z,98363.31
2023-09-21T21:27:33.641Z,98373.50
2023-09-21T21:30:02.873Z,98371.50
2023-09-21T21:32:29.941Z,98366.13
2023-09-21T21:35:00.168Z,98371.66
2023-09-21T21:37:26.901Z,98367.22
2023-09-21T21:39:54.875Z,98358.84
2023-09-21T21:42:22.023Z,98356.56
2023-09-21T21:44:51.301Z,98367.06
2023-09-21T21:47:18.232Z,98359.34
2023-09-21T21:49:45.291Z,98357.28
2023-09-21T21:52:21.373Z,98346.84
2023-09-21T21:54:48.614Z,98354.34
2023-09-21T21:57:16.281Z,98359.88
2023-09-21T21:59:44.349Z,98356.28
2023-09-21T22:02:12.405Z,98357.84
2023-09-21T22:04:41.255Z,98359.81
2023-09-21T22:07:08.187Z,98357.13
2023-09-21T22:09:35.521Z,98350.06
2023-09-21T22:12:03.370Z,98354.03
2023-09-21T22:14:32.274Z,98345.28
2023-09-21T22:17:02.815Z,98347.06
2023-09-21T22:19:33.044Z,98343.59
2023-09-21T22:22:02.425Z,98350.78
2023-09-21T22:24:30.793Z,98334.69
2023-09-21T22:26:59.152Z,98330.50
2023-09-21T22:29:26.825Z,98333.66
2023-09-21T22:31:53.991Z,98335.91
2023-09-21T22:34:20.962Z,98332.84
2023-09-21T22:36:48.260Z,98334.16
2023-09-21T22:39:17.546Z,98328.41
2023-09-21T22:41:44.987Z,98331.38
2023-09-21T22:44:11.883Z,98323.06
2023-09-21T22:46:39.849Z,98322.34
2023-09-21T22:49:08.019Z,98320.78
2023-09-21T22:51:34.801Z,98328.72
2023-09-21T22:54:01.761Z,98317.59
2023-09-21T22:56:30.664Z,98314.75
2023-09-21T22:58:59.089Z,98317.72
2023-09-21T23:01:27.153Z,98315.22
2023-09-21T23:03:53.968Z,98314.66
2023-09-21T23:06:25.800Z,98313.53
2023-09-21T23:08:53.653Z,98318.56
2023-09-21T23:11:22.778Z,98326.69
2023-09-21T23:13:56.424Z,98313.47
2023-09-21T23:16:25.381Z,98317.16
2023-09-21T23:18:53.505Z,98316.91
2023-09-21T23:21:22.948Z,98317.97
2023-09-21T23:23:49.869Z,98324.44
2023-09-21T23:26:19.787Z,98329.53
2023-09-21T23:28:46.836Z,98325.03
2023-09-21T23:31:14.972Z,98324.72
2023-09-21T23:33:42.278Z,98323.94
2023-09-21T23:36:15.205Z,98325.63
2023-09-21T23:38:48.306Z,98331.50
2023-09-21T23:41:15.554Z,98325.03
2023-09-21T23:43:42.388Z,98320.56
2023-09-21T23:46:10.490Z,98327.91
2023-09-21T23:48:41.830Z,98328.16
2023-09-21T23:51:18.113Z,98318.56
2023-09-21T23:53:45.801Z,98304.78
2023-09-21T23:56:12.876Z,98304.16
2023-09-21T23:58:39.826Z,98305.69
